HOURLY OBS INDEX

026

Lower Southeast

CAPE JAFFA (THE LIMESTONE)

Site: 026095
Alt: 17.0m
22km N of ROBE


  Time     Wind        Temp  DP   Baro     Rain since   Rain past  Vis(m), Cloud(base in m), Weather
  local        km/h                         9am  last   hr   10m    
Mon 19:30    S 32/ 41  17.4 11.2  1018.8    0.0   0.0   0.0   0.0   ----- 
Mon 19:30    S 32/ 41  17.4 11.2  1018.8    0.0   0.0  ----   0.0   ----- 
Mon 20:00    S 30/ 37  16.5 11.2  1018.9    0.0   0.0   0.0   0.0   ----- 
Mon 20:00    S 30/ 37  16.5 11.2  1018.9    0.0   0.0  ----   0.0   ----- 
Mon 20:30    S 26/ 39  15.5 11.3  1019.2    0.0   0.0   0.0   0.0   ----- 
Mon 20:30    S 26/ 39  15.5 11.3  1019.2    0.0   0.0  ----   0.0   ----- 
Mon 21:00    S 24/ 32  15.0 11.6  1019.4    0.0   0.0   0.0   0.0   ----- 
Mon 21:30    S 19/ 22  14.3 11.3  1019.7    0.0   0.0   0.0   0.0   ----- 
Mon 22:00    S 17/ 20  13.6 11.0  1019.6    0.0   0.0   0.0   0.0   ----- 
Mon 22:30    S 17/ 22  13.2 10.7  1019.6    0.0   0.0   0.0   0.0   ----- 
Mon 23:00  SSE 13/ 20  13.1 10.6  1019.6    0.0   0.0   0.0   0.0   ----- 
Mon 23:30  SSE 11/ 17  12.7 10.2  1019.4    0.0   0.0   0.0   0.0   ----- 
Tue 00:00  SSE 15/ 20  12.7 10.4  1019.1    0.0   0.0   0.0   0.0   ----- 
Tue 00:30  SSE 15/ 20  12.8 10.5  1018.7    0.0   0.0   0.0   0.0   ----- 
Tue 01:00  SSE 15/ 22  12.9 10.4  1018.4    0.0   0.0   0.0   0.0   ----- 

COONAWARRA

Site: 026091
Alt: 57.0m
38km SSE of NARACOORTE


  Time     Wind        Temp  DP   Baro     Rain since   Rain past  Vis(m), Cloud(base in m), Weather
  local        km/h                         9am  last   hr   10m    
Mon 19:30  SSE 20/ 32  20.5 11.0  1018.8    0.0   0.0   0.0   0.0   ----- 
Mon 19:30  SSE 20/ 32  20.5 11.0  1018.8    0.0   0.0  ----   0.0   ----- 
Mon 20:00  SSE 20/ 32  19.1 11.0  1019.0    0.0   0.0   0.0   0.0   ----- 
Mon 20:00  SSE 20/ 32  19.1 11.0  1019.0    0.0   0.0  ----   0.0   ----- 
Mon 20:30    S 17/ 24  17.8 10.9  1019.1    0.0   0.0   0.0   0.0   ----- 
Mon 20:30    S 17/ 24  17.8 10.9  1019.1    0.0   0.0  ----   0.0   ----- 
Mon 21:00    S 15/ 20  16.9 10.9  1019.2    0.0   0.0   0.0   0.0   ----- 
Mon 21:30    S 15/ 20  16.1 10.8  1019.4    0.0   0.0   0.0   0.0   ----- 
Mon 22:00  SSE 13/ 20  15.4 11.1  1019.7    0.0   0.0   0.0   0.0   ----- 
Mon 22:30  SSE 13/ 19  14.7 10.7  1019.7    0.0   0.0   0.0   0.0   ----- 
Mon 23:00  SSE 11/ 15  13.9 10.7  1019.8    0.0   0.0   0.0   0.0   ----- 
Mon 23:30  SSE 13/ 17  13.4 10.3  1019.4    0.0   0.0   0.0   0.0   ----- 
Tue 00:00  SSE 13/ 19  13.0 10.1  1019.2    0.0   0.0   0.0   0.0   ----- 
Tue 00:30   SE  9/ 13  12.5 10.0  1019.0    0.0   0.0   0.0   0.0   ----- 
Tue 01:00   SE  7/  9  11.6  9.6  1019.0    0.0   0.0   0.0   0.0   ----- 

MOUNT GAMBIER AERO

Site: 026021
Alt: 63.0m
9km N of MOUNT GAMBIER


  Time     Wind        Temp  DP   Baro     Rain since   Rain past  Vis(m), Cloud(base in m), Weather
  local        km/h                         9am  last   hr   10m    
Mon 19:30    S 24/ 32  16.7 10.8  1019.8    0.0   0.0   0.0   0.0   10000 
Mon 19:30    S 24/ 32  16.7 10.8  1019.8    0.0   0.0  ----   0.0   10000 
Mon 20:00    S 19/ 26  15.4 10.6  1020.1    0.0   0.0   0.0   0.0   10000 
Mon 20:00    S 19/ 26  15.4 10.6  1020.1    0.0   0.0  ----   0.0   10000 
Mon 20:30    S 13/ 17  14.2 10.4  1020.3    0.0   0.0   0.0   0.0   10000 
Mon 20:30    S 13/ 17  14.2 10.4  1020.3    0.0   0.0  ----   0.0   10000 
Mon 21:00    S 15/ 19  13.4 10.8  1020.3    0.0   0.0   0.0   0.0   10000 
Mon 21:30  SSE 13/ 17  12.6 10.5  1020.4    0.0   0.0   0.0   0.0   10000 
Mon 22:00  SSE 13/ 17  11.6 10.0  1020.4    0.0   0.0   0.0   0.0   10000 
Mon 22:30  SSE 13/ 15  10.9  9.7  1020.5    0.0   0.0   0.0   0.0   10000 
Mon 23:00  SSE 13/ 13  10.7  9.6  1020.3    0.0   0.0   0.0   0.0   10000 
Mon 23:30  SSE 11/ 13  10.2  9.3  1020.2    0.0   0.0   0.0   0.0   10000 
Tue 00:00  SSE  9/ 13  10.2  9.4  1020.1    0.0   0.0   0.0   0.0   10000 
Tue 00:30  SSE 13/ 15   9.2  8.4  1019.7    0.0   0.0   0.0   0.0   10000 
Tue 01:00   SE  9/ 11   9.5  8.9  1019.3    0.0   0.0   0.0   0.0   10000 

NARACOORTE AERODROME

Site: 026099
Alt: 49.7m
3km SSW of NARACOORTE


  Time     Wind        Temp  DP   Baro     Rain since   Rain past  Vis(m), Cloud(base in m), Weather
  local        km/h                         9am  last   hr   10m    
Mon 19:30  SSE 35/ 43  21.1 10.0  1017.9    0.0   0.0   0.0   0.0   ----- 
Mon 19:30  SSE 35/ 43  21.1 10.0  1017.9    0.0   0.0  ----   0.0   ----- 
Mon 20:00  SSE 32/ 39  19.6 10.0  1018.1    0.0   0.0   0.0   0.0   ----- 
Mon 20:00  SSE 32/ 39  19.6 10.0  1018.1    0.0   0.0  ----   0.0   ----- 
Mon 20:30    S 28/ 37  18.1 10.5  1018.3    0.0   0.0   0.0   0.0   ----- 
Mon 20:30    S 28/ 37  18.1 10.5  1018.3    0.0   0.0  ----   0.0   ----- 
Mon 21:00    S 24/ 32  16.8 10.4  1018.7    0.0   0.0   0.0   0.0   ----- 
Mon 21:30  SSE 19/ 22  15.3 10.3  1019.0    0.0   0.0   0.0   0.0   ----- 
Mon 22:00  SSE 17/ 20  14.1 10.1  1019.1    0.0   0.0   0.0   0.0   ----- 
Mon 22:30  SSE 17/ 20  13.2 10.0  1019.0    0.0   0.0   0.0   0.0   ----- 
Mon 23:00  SSE 15/ 19  12.3  9.7  1019.0    0.0   0.0   0.0   0.0   ----- 
Mon 23:30  SSE 15/ 17  11.5  9.4  1018.8    0.0   0.0   0.0   0.0   ----- 
Tue 00:00  SSE 13/ 15  10.6  8.9  1018.7    0.0   0.0   0.0   0.0   ----- 
Tue 00:30  SSE 13/ 17  10.0  8.6  1018.6    0.0   0.0   0.0   0.0   ----- 
Tue 01:00    S 15/ 17   9.8  8.6  1018.3    0.0   0.0   0.0   0.0   ----- 

PADTHAWAY SOUTH

Site: 026100
Alt: 37.0m
38km NNW of NARACOORTE


  Time     Wind        Temp  DP   Baro     Rain since   Rain past  Vis(m), Cloud(base in m), Weather
  local        km/h                         9am  last   hr   10m    
Mon 19:30    S 20/ 35  22.9  8.6  ------    0.2   0.0   0.0   0.0   ----- 
Mon 19:30    S 20/ 35  22.9  8.6  ------    0.2   0.0  ----   0.0   ----- 
Mon 20:00    S 19/ 28  21.3  9.2  ------    0.2   0.0   0.0   0.0   ----- 
Mon 20:00    S 19/ 28  21.3  9.2  ------    0.2   0.0  ----   0.0   ----- 
Mon 20:30    S 17/ 28  19.8  9.4  ------    0.2   0.0   0.0   0.0   ----- 
Mon 20:30    S 17/ 28  19.8  9.4  ------    0.2   0.0  ----   0.0   ----- 
Mon 21:00    S  9/ 19  18.5  9.3  ------    0.2   0.0   0.0   0.0   ----- 
Mon 21:30    S 13/ 24  17.6  9.5  ------    0.2   0.0   0.0   0.0   ----- 
Mon 22:00    S 15/ 20  16.8  9.5  ------    0.2   0.0   0.0   0.0   ----- 
Mon 22:30  SSE 15/ 26  16.1  9.5  ------    0.2   0.0   0.0   0.0   ----- 
Mon 23:00  SSE 13/ 22  15.4  9.7  ------    0.2   0.0   0.0   0.0   ----- 
Mon 23:30  SSE 13/ 20  14.5  9.9  ------    0.2   0.0   0.0   0.0   ----- 
Tue 00:00  SSE 13/ 19  13.7 10.1  ------    0.2   0.0   0.0   0.0   ----- 
Tue 00:30  SSE 11/ 19  13.1 10.3  ------    0.2   0.0   0.0   0.0   ----- 
Tue 01:00   SE  7/ 13  12.2 10.1  ------    0.2   0.0   0.0   0.0   ----- 

ROBE AIRFIELD

Site: 026105
Alt: 3.0m
5km ESE of ROBE


  Time     Wind        Temp  DP   Baro     Rain since   Rain past  Vis(m), Cloud(base in m), Weather
  local        km/h                         9am  last   hr   10m    
Mon 19:30    S 26/ 35  16.9 12.6  1019.4    0.0   0.0   0.0   0.0   ----- 
Mon 19:30    S 26/ 35  16.9 12.6  1019.4    0.0   0.0  ----   0.0   ----- 
Mon 20:00  SSE 24/ 32  16.1 12.5  1019.5    0.0   0.0   0.0   0.0   ----- 
Mon 20:00  SSE 24/ 32  16.1 12.5  1019.5    0.0   0.0  ----   0.0   ----- 
Mon 20:30  SSE 22/ 32  15.2 12.2  1019.6    0.0   0.0   0.0   0.0   ----- 
Mon 20:30  SSE 22/ 32  15.2 12.2  1019.6    0.0   0.0  ----   0.0   ----- 
Mon 21:00    S 20/ 26  14.8 12.5  1019.7    0.0   0.0   0.0   0.0   ----- 
Mon 21:30  SSE 20/ 28  14.6 12.5  1019.7    0.0   0.0   0.0   0.0   ----- 
Mon 22:00  SSE 17/ 24  14.4 12.3  1019.9    0.0   0.0   0.0   0.0   ----- 
Mon 22:30    S 17/ 20  14.1 12.3  1019.9    0.0   0.0   0.0   0.0   ----- 
Mon 23:00  SSE 11/ 22  13.9 12.5  1019.8    0.0   0.0   0.0   0.0   ----- 
Mon 23:30   SE 15/ 22  14.2 12.8  1019.6    0.0   0.0   0.0   0.0   ----- 
Tue 00:00   SE 15/ 22  14.0 12.7  1019.3    0.0   0.0   0.0   0.0   ----- 
Tue 00:30   SE 17/ 20  13.8 12.5  1019.1    0.0   0.0   0.0   0.0   ----- 
Tue 01:00   SE 15/ 24  13.6 12.5  1018.7    0.0   0.0   0.0   0.0   -----